Hafnia Nordica — 9HA4256 — position and weather

sailwx.info

Track history (hours):
 
Tides and Currents Weather Stations Pressure Air Temp Water Temp Dewpoint Dewpoint Depression Visibility Wind Speed Wind Dir Waves Ship Positions

Hafnia Nordica

Last reported at 2017-Sep-07 20:10 UTC. Time now 2017-Sep-22 01:18 UTC.
Position N 09°53' W 079°57'.
Warning: this ship's position is 14 days out of date.

Length 186 m; draft 7.5 m.

Type: Ship. MMSI: 249460000.

Date/timePositionNaut miles runAvg speedWind from/ knotsBaromVisibWave heightAir tempDewpointWater temp
2017-Sep-07 20:10N 09°53' W 079°57'312.6
2017-Sep-07 19:58N 09°51' W 079°57'612.7
2017-Sep-07 19:31N 09°45' W 079°58'812.8
2017-Sep-07 18:52N 09°37' W 079°57'513.1
2017-Sep-07 18:31N 09°32' W 079°56'713.1
2017-Sep-07 18:01N 09°26' W 079°55'611.3
2017-Sep-07 17:30N 09°20' W 079°55'3 6.4
2017-Sep-07 17:00N 09°17' W 079°55'0 0.7
2017-Sep-07 16:30N 09°16' W 079°55'0 0.4
2017-Sep-07 16:01N 09°16' W 079°55'1 2.1
2017-Sep-07 15:31N 09°15' W 079°55'5 9.7
2017-Sep-07 15:01N 09°11' W 079°53'19 4.0
2017-Sep-07 10:21N 09°01' W 079°37'0 0.7
2017-Sep-07 09:57N 09°01' W 079°37'1 2.1
2017-Sep-07 09:27N 09°00' W 079°36'0 0.8
2017-Sep-07 08:59N 08°60' W 079°36'0 0.7
2017-Sep-07 08:28N 08°60' W 079°35'1 2.3
2017-Sep-07 07:57N 08°58' W 079°35'3 5.5
2017-Sep-07 07:28N 08°56' W 079°33'4 8.1
2017-Sep-07 06:55N 08°53' W 079°31'  
2017-Sep-04 22:25N 08°54' W 079°32'7 5.5
2017-Sep-04 21:10N 08°60' W 079°36'13 3.4
2017-Sep-04 17:22N 09°07' W 079°47'3 8.6
2017-Sep-04 16:59N 09°09' W 079°49'3 5.6
2017-Sep-04 16:26N 09°11' W 079°52'4 9.2
2017-Sep-04 16:01N 09°12' W 079°55'1 1.9
2017-Sep-04 15:29N 09°13' W 079°56'0 0.0
2017-Sep-04 14:59N 09°13' W 079°56'0 0.1
2017-Sep-04 14:29N 09°13' W 079°56'0 0.0
2017-Sep-04 13:59N 09°13' W 079°56'0 0.0
2017-Sep-04 13:29N 09°13' W 079°56'0 0.0
2017-Sep-04 12:59N 09°13' W 079°56'0 0.1
2017-Sep-04 12:29N 09°13' W 079°56'0 0.1
2017-Sep-04 11:59N 09°13' W 079°56'0 0.1
2017-Sep-04 11:29N 09°13' W 079°56'0 0.2
2017-Sep-04 10:59N 09°13' W 079°56'0 0.1
2017-Sep-04 10:29N 09°13' W 079°56'0 0.0
2017-Sep-04 09:59N 09°13' W 079°56'0 0.0
2017-Sep-04 09:30N 09°13' W 079°56'0 0.0
2017-Sep-04 09:00N 09°13' W 079°56'0 0.0
2017-Sep-04 08:31N 09°13' W 079°56'0 0.0
2017-Sep-04 08:00N 09°13' W 079°56'0 0.0
2017-Sep-04 07:30N 09°13' W 079°56'0 0.0
2017-Sep-04 07:00N 09°13' W 079°56'0 0.0
2017-Sep-04 06:30N 09°13' W 079°56'0 0.0
2017-Sep-04 06:00N 09°13' W 079°56'0 0.0
2017-Sep-04 05:30N 09°13' W 079°56'0 0.1
2017-Sep-04 05:00N 09°13' W 079°56'0 0.0
2017-Sep-04 04:30N 09°13' W 079°56'0 0.0
2017-Sep-04 04:00N 09°13' W 079°56'0 0.0
2017-Sep-04 03:30N 09°13' W 079°56'0 0.1
2017-Sep-04 03:00N 09°13' W 079°56'0 0.1
2017-Sep-04 02:30N 09°13' W 079°56'2 4.8
2017-Sep-04 02:00N 09°15' W 079°55'1 1.6
2017-Sep-04 01:30N 09°16' W 079°55'0 0.4
2017-Sep-04 01:00N 09°16' W 079°55'0 0.5
2017-Sep-04 00:30N 09°17' W 079°55'1 1.2
2017-Sep-04 00:00N 09°17' W 079°55'2 4.3
2017-Sep-03 23:30N 09°19' W 079°55'3 6.6
2017-Sep-03 23:00N 09°23' W 079°55'3 5.5
2017-Sep-03 22:30N 09°25' W 079°56'1 2.3
2017-Sep-03 22:00N 09°26' W 079°57'0 0.1
2017-Sep-03 21:27N 09°26' W 079°57'0 0.0
2017-Sep-03 21:00N 09°26' W 079°57'0 0.0
2017-Sep-03 20:30N 09°26' W 079°57'0 0.0
2017-Sep-03 20:00N 09°26' W 079°57'0 0.0
2017-Sep-03 19:30N 09°26' W 079°57'0 0.0
2017-Sep-03 19:00N 09°26' W 079°57'0 0.0
2017-Sep-03 18:30N 09°26' W 079°57'0 0.1
2017-Sep-03 18:00N 09°26' W 079°57'0 0.0
2017-Sep-03 17:30N 09°26' W 079°57'0 0.0
2017-Sep-03 17:00N 09°26' W 079°57'0 0.0
2017-Sep-03 16:30N 09°26' W 079°57'0 0.0
2017-Sep-03 16:00N 09°26' W 079°57'0 0.0
2017-Sep-03 15:30N 09°26' W 079°57'0 0.0
2017-Sep-03 15:00N 09°26' W 079°57'0 0.0
2017-Sep-03 13:54N 09°26' W 079°57'0 0.0
2017-Sep-03 13:30N 09°26' W 079°57'0 0.0
2017-Sep-03 13:00N 09°26' W 079°57'0 0.0
2017-Sep-03 12:30N 09°26' W 079°57'0 0.0
2017-Sep-03 12:00N 09°26' W 079°57'0 0.0
2017-Sep-03 11:30N 09°26' W 079°57'0 0.0
2017-Sep-03 11:00N 09°26' W 079°57'0 0.0
2017-Sep-03 10:30N 09°26' W 079°57'0 0.0
2017-Sep-03 10:00N 09°26' W 079°57'0 0.0
2017-Sep-03 09:30N 09°26' W 079°57'0 0.0
2017-Sep-03 09:00N 09°26' W 079°57'0 0.0
2017-Sep-03 08:30N 09°26' W 079°57'0 0.0
2017-Sep-03 08:00N 09°26' W 079°57'0 0.0
2017-Sep-03 07:30N 09°26' W 079°57'0 0.0
2017-Sep-03 07:00N 09°26' W 079°57'0 0.0
2017-Sep-03 06:30N 09°26' W 079°57'0 0.0
2017-Sep-03 06:00N 09°26' W 079°57'0 0.0
2017-Sep-03 05:30N 09°26' W 079°57'0 0.0
2017-Sep-03 05:00N 09°26' W 079°57'0 0.0
2017-Sep-03 04:30N 09°26' W 079°57'0 0.0
2017-Sep-03 04:00N 09°26' W 079°57'0 0.0
2017-Sep-03 03:30N 09°26' W 079°57'0 0.0
2017-Sep-03 03:00N 09°26' W 079°57'0 0.1
2017-Sep-03 02:30N 09°26' W 079°57'2 4.7
2017-Sep-03 02:00N 09°27' W 079°55'510.1
2017-Sep-03 01:30N 09°32' W 079°53'611.8
2017-Sep-03 01:00N 09°38' W 079°53'612.2
2017-Sep-03 00:28N 09°45' W 079°53'  
Track history (hours):
 
Tides and Currents Weather Stations Pressure Air Temp Water Temp Dewpoint Dewpoint Depression Visibility Wind Speed Wind Dir Waves Ship Positions

Hafnia Nordica

Last reported at 2017-Sep-07 20:10 UTC. Time now 2017-Sep-22 01:18 UTC.
Position N 09°53' W 079°57'.
Warning: this ship's position is 14 days out of date.

Length 186 m; draft 7.5 m.

Type: Ship. MMSI: 249460000.

Date/timePositionNaut miles runAvg speedWind from/ knotsBaromVisibWave heightAir tempDewpointWater temp
2017-Sep-07 20:10N 09°53' W 079°57'312.6
2017-Sep-07 19:58N 09°51' W 079°57'612.7
2017-Sep-07 19:31N 09°45' W 079°58'812.8
2017-Sep-07 18:52N 09°37' W 079°57'513.1
2017-Sep-07 18:31N 09°32' W 079°56'713.1
2017-Sep-07 18:01N 09°26' W 079°55'611.3
2017-Sep-07 17:30N 09°20' W 079°55'3 6.4
2017-Sep-07 17:00N 09°17' W 079°55'0 0.7
2017-Sep-07 16:30N 09°16' W 079°55'0 0.4
2017-Sep-07 16:01N 09°16' W 079°55'1 2.1
2017-Sep-07 15:31N 09°15' W 079°55'5 9.7
2017-Sep-07 15:01N 09°11' W 079°53'19 4.0
2017-Sep-07 10:21N 09°01' W 079°37'0 0.7
2017-Sep-07 09:57N 09°01' W 079°37'1 2.1
2017-Sep-07 09:27N 09°00' W 079°36'0 0.8
2017-Sep-07 08:59N 08°60' W 079°36'0 0.7
2017-Sep-07 08:28N 08°60' W 079°35'1 2.3
2017-Sep-07 07:57N 08°58' W 079°35'3 5.5
2017-Sep-07 07:28N 08°56' W 079°33'4 8.1
2017-Sep-07 06:55N 08°53' W 079°31'  
2017-Sep-04 22:25N 08°54' W 079°32'7 5.5
2017-Sep-04 21:10N 08°60' W 079°36'13 3.4
2017-Sep-04 17:22N 09°07' W 079°47'3 8.6
2017-Sep-04 16:59N 09°09' W 079°49'3 5.6
2017-Sep-04 16:26N 09°11' W 079°52'4 9.2
2017-Sep-04 16:01N 09°12' W 079°55'1 1.9
2017-Sep-04 15:29N 09°13' W 079°56'0 0.0
2017-Sep-04 14:59N 09°13' W 079°56'0 0.1
2017-Sep-04 14:29N 09°13' W 079°56'0 0.0
2017-Sep-04 13:59N 09°13' W 079°56'0 0.0
2017-Sep-04 13:29N 09°13' W 079°56'0 0.0
2017-Sep-04 12:59N 09°13' W 079°56'0 0.1
2017-Sep-04 12:29N 09°13' W 079°56'0 0.1
2017-Sep-04 11:59N 09°13' W 079°56'0 0.1
2017-Sep-04 11:29N 09°13' W 079°56'0 0.2
2017-Sep-04 10:59N 09°13' W 079°56'0 0.1
2017-Sep-04 10:29N 09°13' W 079°56'0 0.0
2017-Sep-04 09:59N 09°13' W 079°56'0 0.0
2017-Sep-04 09:30N 09°13' W 079°56'0 0.0
2017-Sep-04 09:00N 09°13' W 079°56'0 0.0
2017-Sep-04 08:31N 09°13' W 079°56'0 0.0
2017-Sep-04 08:00N 09°13' W 079°56'0 0.0
2017-Sep-04 07:30N 09°13' W 079°56'0 0.0
2017-Sep-04 07:00N 09°13' W 079°56'0 0.0
2017-Sep-04 06:30N 09°13' W 079°56'0 0.0
2017-Sep-04 06:00N 09°13' W 079°56'0 0.0
2017-Sep-04 05:30N 09°13' W 079°56'0 0.1
2017-Sep-04 05:00N 09°13' W 079°56'0 0.0
2017-Sep-04 04:30N 09°13' W 079°56'0 0.0
2017-Sep-04 04:00N 09°13' W 079°56'0 0.0
2017-Sep-04 03:30N 09°13' W 079°56'0 0.1
2017-Sep-04 03:00N 09°13' W 079°56'0 0.1
2017-Sep-04 02:30N 09°13' W 079°56'2 4.8
2017-Sep-04 02:00N 09°15' W 079°55'1 1.6
2017-Sep-04 01:30N 09°16' W 079°55'0 0.4
2017-Sep-04 01:00N 09°16' W 079°55'0 0.5
2017-Sep-04 00:30N 09°17' W 079°55'1 1.2
2017-Sep-04 00:00N 09°17' W 079°55'2 4.3
2017-Sep-03 23:30N 09°19' W 079°55'3 6.6
2017-Sep-03 23:00N 09°23' W 079°55'3 5.5
2017-Sep-03 22:30N 09°25' W 079°56'1 2.3
2017-Sep-03 22:00N 09°26' W 079°57'0 0.1
2017-Sep-03 21:27N 09°26' W 079°57'0 0.0
2017-Sep-03 21:00N 09°26' W 079°57'0 0.0
2017-Sep-03 20:30N 09°26' W 079°57'0 0.0
2017-Sep-03 20:00N 09°26' W 079°57'0 0.0
2017-Sep-03 19:30N 09°26' W 079°57'0 0.0
2017-Sep-03 19:00N 09°26' W 079°57'0 0.0
2017-Sep-03 18:30N 09°26' W 079°57'0 0.1
2017-Sep-03 18:00N 09°26' W 079°57'0 0.0
2017-Sep-03 17:30N 09°26' W 079°57'0 0.0
2017-Sep-03 17:00N 09°26' W 079°57'0 0.0
2017-Sep-03 16:30N 09°26' W 079°57'0 0.0
2017-Sep-03 16:00N 09°26' W 079°57'0 0.0
2017-Sep-03 15:30N 09°26' W 079°57'0 0.0
2017-Sep-03 15:00N 09°26' W 079°57'0 0.0
2017-Sep-03 13:54N 09°26' W 079°57'0 0.0
2017-Sep-03 13:30N 09°26' W 079°57'0 0.0
2017-Sep-03 13:00N 09°26' W 079°57'0 0.0
2017-Sep-03 12:30N 09°26' W 079°57'0 0.0
2017-Sep-03 12:00N 09°26' W 079°57'0 0.0
2017-Sep-03 11:30N 09°26' W 079°57'0 0.0
2017-Sep-03 11:00N 09°26' W 079°57'0 0.0
2017-Sep-03 10:30N 09°26' W 079°57'0 0.0
2017-Sep-03 10:00N 09°26' W 079°57'0 0.0
2017-Sep-03 09:30N 09°26' W 079°57'0 0.0
2017-Sep-03 09:00N 09°26' W 079°57'0 0.0
2017-Sep-03 08:30N 09°26' W 079°57'0 0.0
2017-Sep-03 08:00N 09°26' W 079°57'0 0.0
2017-Sep-03 07:30N 09°26' W 079°57'0 0.0
2017-Sep-03 07:00N 09°26' W 079°57'0 0.0
2017-Sep-03 06:30N 09°26' W 079°57'0 0.0
2017-Sep-03 06:00N 09°26' W 079°57'0 0.0
2017-Sep-03 05:30N 09°26' W 079°57'0 0.0
2017-Sep-03 05:00N 09°26' W 079°57'0 0.0
2017-Sep-03 04:30N 09°26' W 079°57'0 0.0
2017-Sep-03 04:00N 09°26' W 079°57'0 0.0
2017-Sep-03 03:30N 09°26' W 079°57'0 0.0
2017-Sep-03 03:00N 09°26' W 079°57'0 0.1
2017-Sep-03 02:30N 09°26' W 079°57'2 4.7
2017-Sep-03 02:00N 09°27' W 079°55'510.1
2017-Sep-03 01:30N 09°32' W 079°53'611.8
2017-Sep-03 01:00N 09°38' W 079°53'612.2
2017-Sep-03 00:28N 09°45' W 079°53'  

Dump ship's entire track history